Terminal Aerodrome Forecast
Issued by NWS Bismarck, ND

Home | Current Version | Previous Version | Text Only | Print | Product List | Glossary Off
Versions: 1 2 3 4 5 6 7 8 9 10 11 12

000
FTUS43 KBIS 221731
TAFISN
TAF
KISN 221731Z 2218/2318 01014G22KT P6SM BKN100
     FM230200 36007KT P6SM BKN120
     FM231200 VRB06KT P6SM FEW150=

USA.gov is the U.S. government's official web portal to all federal, state and local government web resources and services.